createdAt,value
2023-02-04T00:00:31.360Z,8.812
2023-02-04T00:01:29.908Z,8.812
2023-02-04T00:02:30.338Z,8.812
2023-02-04T00:03:30.169Z,8.812
2023-02-04T00:04:29.389Z,8.812
2023-02-04T00:05:29.734Z,8.812
2023-02-04T00:06:30.102Z,8.812
2023-02-04T00:07:29.315Z,8.812
2023-02-04T00:08:29.404Z,8.812
2023-02-04T00:09:29.134Z,8.812
2023-02-04T00:10:29.980Z,8.812
2023-02-04T00:11:29.201Z,8.812
2023-02-04T00:12:29.517Z,8.812
2023-02-04T00:13:29.411Z,8.812
2023-02-04T00:14:29.683Z,8.812
2023-02-04T00:15:30.194Z,8.812
2023-02-04T00:16:29.288Z,8.812
2023-02-04T00:17:29.231Z,8.812
2023-02-04T00:18:29.241Z,8.812
2023-02-04T00:19:29.602Z,8.812
2023-02-04T00:20:30.189Z,8.812
2023-02-04T00:21:29.563Z,8.812
2023-02-04T00:22:29.731Z,8.812
2023-02-04T00:23:29.661Z,8.812
2023-02-04T00:24:29.632Z,8.812
2023-02-04T00:25:29.762Z,8.812
2023-02-04T00:27:29.333Z,8.812
2023-02-04T00:29:29.329Z,8.812
2023-02-04T00:30:30.183Z,8.812
2023-02-04T00:31:29.699Z,8.812
2023-02-04T00:32:30.207Z,8.785
2023-02-04T00:33:29.050Z,8.799
2023-02-04T00:34:30.076Z,8.812
2023-02-04T00:35:29.595Z,8.774
2023-02-04T00:36:29.505Z,8.758
2023-02-04T00:37:29.831Z,8.75
2023-02-04T00:38:30.116Z,8.781
2023-02-04T00:39:29.297Z,8.760
2023-02-04T00:40:29.588Z,8.760
2023-02-04T00:41:29.714Z,8.760
2023-02-04T00:42:30.197Z,8.760
2023-02-04T00:43:29.512Z,8.75
2023-02-04T00:44:29.520Z,8.75
2023-02-04T00:45:29.874Z,8.75
2023-02-04T00:46:29.682Z,8.75
2023-02-04T00:47:29.363Z,8.75
2023-02-04T00:48:29.027Z,8.75
2023-02-04T00:49:28.669Z,8.75
2023-02-04T00:50:29.755Z,8.75
2023-02-04T00:51:29.544Z,8.75
2023-02-04T00:52:29.437Z,8.75
2023-02-04T00:53:29.076Z,8.75
2023-02-04T00:54:28.955Z,8.75
2023-02-04T00:55:51.875Z,8.75
2023-02-04T00:56:29.726Z,8.75
2023-02-04T00:57:29.285Z,8.75
2023-02-04T00:58:29.183Z,8.75
2023-02-04T00:59:28.842Z,8.75
2023-02-04T01:00:31.111Z,8.75
2023-02-04T01:01:32.449Z,8.75
2023-02-04T01:02:29.716Z,8.75
2023-02-04T01:03:30.024Z,8.75
2023-02-04T01:04:28.936Z,8.75
2023-02-04T01:05:30.376Z,8.75
2023-02-04T01:06:29.352Z,8.75
2023-02-04T01:07:29.356Z,8.75
2023-02-04T01:08:29.574Z,8.75
2023-02-04T01:09:29.486Z,8.75
2023-02-04T01:10:29.739Z,8.75
2023-02-04T01:11:29.178Z,8.708
2023-02-04T01:12:28.938Z,8.708
2023-02-04T01:13:28.671Z,8.75
2023-02-04T01:14:29.483Z,8.75
2023-02-04T01:15:29.561Z,8.75
2023-02-04T01:16:29.251Z,8.75
2023-02-04T01:17:29.051Z,8.739
2023-02-04T01:18:28.683Z,8.739
2023-02-04T01:19:28.769Z,8.729
2023-02-04T01:20:29.925Z,8.718
2023-02-04T01:21:28.636Z,8.729
2023-02-04T01:22:29.439Z,8.75
2023-02-04T01:23:28.610Z,8.739
2023-02-04T01:24:28.852Z,8.739
2023-02-04T01:25:29.519Z,8.729
2023-02-04T01:26:28.795Z,8.718
2023-02-04T01:27:29.148Z,8.75
2023-02-04T01:28:28.558Z,8.729
2023-02-04T01:29:28.876Z,8.697
2023-02-04T01:30:29.884Z,8.708
2023-02-04T01:31:28.432Z,8.718
2023-02-04T01:32:28.846Z,8.697
2023-02-04T01:33:29.164Z,8.718
2023-02-04T01:34:28.422Z,8.697
2023-02-04T01:35:28.769Z,8.718
2023-02-04T01:36:29.199Z,8.729
2023-02-04T01:37:28.335Z,8.739
2023-02-04T01:38:28.155Z,8.718
2023-02-04T01:39:28.327Z,8.718
2023-02-04T01:40:29.391Z,8.687
2023-02-04T01:41:28.742Z,8.687
2023-02-04T01:42:28.872Z,8.687
2023-02-04T01:43:29.216Z,8.687
2023-02-04T01:44:28.424Z,8.687
2023-02-04T01:45:28.638Z,8.687
2023-02-04T01:46:29.320Z,8.687
2023-02-04T01:47:28.727Z,8.687
2023-02-04T01:48:28.841Z,8.687
2023-02-04T01:49:28.946Z,8.687
2023-02-04T01:50:29.919Z,8.687
2023-02-04T01:51:28.457Z,8.687
2023-02-04T01:52:28.562Z,8.687
2023-02-04T01:53:28.522Z,8.687
2023-02-04T01:54:28.982Z,8.687
2023-02-04T01:55:28.073Z,8.687
2023-02-04T01:56:28.555Z,8.687
2023-02-04T01:57:28.709Z,8.687
2023-02-04T01:58:28.988Z,8.687
2023-02-04T01:59:28.251Z,8.687
2023-02-04T02:00:30.761Z,8.687
2023-02-04T02:01:30.009Z,8.687
2023-02-04T02:02:34.185Z,8.687
2023-02-04T02:03:29.263Z,8.687
2023-02-04T02:04:34.394Z,8.687
2023-02-04T02:05:29.381Z,8.687
2023-02-04T02:06:28.823Z,8.687
2023-02-04T02:07:29.381Z,8.687
2023-02-04T02:08:28.670Z,8.687
2023-02-04T02:09:29.349Z,8.687
2023-02-04T02:10:29.586Z,8.687
2023-02-04T02:11:28.884Z,8.687
2023-02-04T02:12:28.698Z,8.687
2023-02-04T02:13:29.100Z,8.687
2023-02-04T02:14:28.558Z,8.687
2023-02-04T02:15:29.766Z,8.687
2023-02-04T02:16:29.741Z,8.687
2023-02-04T02:17:29.966Z,8.687
2023-02-04T02:18:29.256Z,8.687
2023-02-04T02:19:28.816Z,8.676
2023-02-04T02:20:29.978Z,8.656
2023-02-04T02:21:28.970Z,8.676
2023-02-04T02:22:30.206Z,8.687
2023-02-04T02:23:29.490Z,8.676
2023-02-04T02:24:43.581Z,8.687
2023-02-04T02:25:29.485Z,8.676
2023-02-04T02:26:28.896Z,8.676
2023-02-04T02:27:29.314Z,8.656
2023-02-04T02:28:28.940Z,8.676
2023-02-04T02:29:29.456Z,8.656
2023-02-04T02:30:29.286Z,8.656
2023-02-04T02:31:28.923Z,8.645
2023-02-04T02:32:28.283Z,8.645
2023-02-04T02:33:28.542Z,8.656
2023-02-04T02:34:28.856Z,8.656
2023-02-04T02:35:28.822Z,8.625
2023-02-04T02:36:29.007Z,8.635
2023-02-04T02:37:28.347Z,8.625
2023-02-04T02:39:29.373Z,8.625
2023-02-04T02:40:29.306Z,8.625
2023-02-04T02:41:28.706Z,8.625
2023-02-04T02:42:29.345Z,8.625
2023-02-04T02:43:28.450Z,8.625
2023-02-04T02:44:28.517Z,8.625
2023-02-04T02:45:29.164Z,8.625
2023-02-04T02:46:29.027Z,8.625
2023-02-04T02:47:28.377Z,8.625
2023-02-04T02:48:28.776Z,8.625
2023-02-04T02:49:28.877Z,8.625
2023-02-04T02:50:43.397Z,8.645
2023-02-04T02:51:28.758Z,8.625
2023-02-04T02:52:29.213Z,8.625
2023-02-04T02:53:28.070Z,8.625
2023-02-04T02:54:28.016Z,8.625
2023-02-04T02:55:28.786Z,8.625
2023-02-04T02:56:28.921Z,8.625
2023-02-04T02:57:28.948Z,8.625
2023-02-04T02:58:29.134Z,8.625
2023-02-04T02:59:28.684Z,8.625
2023-02-04T03:00:30.942Z,8.625
2023-02-04T03:01:28.395Z,8.625
2023-02-04T03:02:28.417Z,8.625
2023-02-04T03:03:28.388Z,8.625
2023-02-04T03:04:28.492Z,8.625
2023-02-04T03:05:29.074Z,8.625
2023-02-04T03:06:28.197Z,8.625
2023-02-04T03:07:28.047Z,8.625
2023-02-04T03:08:28.026Z,8.625
2023-02-04T03:09:28.371Z,8.625
2023-02-04T03:10:29.283Z,8.625
2023-02-04T03:11:28.495Z,8.625
2023-02-04T03:12:28.650Z,8.625
2023-02-04T03:13:28.981Z,8.625
2023-02-04T03:14:27.983Z,8.625
2023-02-04T03:15:28.618Z,8.625
2023-02-04T03:16:29.183Z,8.625
2023-02-04T03:17:28.491Z,8.625
2023-02-04T03:18:28.574Z,8.625
2023-02-04T03:19:28.629Z,8.625
2023-02-04T03:20:29.346Z,8.625
2023-02-04T03:21:28.614Z,8.625
2023-02-04T03:22:29.294Z,8.625
2023-02-04T03:23:28.694Z,8.625
2023-02-04T03:24:29.266Z,8.625
2023-02-04T03:26:57.320Z,8.625
2023-02-04T03:27:28.977Z,8.625
2023-02-04T03:28:28.931Z,8.625
2023-02-04T03:29:29.944Z,8.625
2023-02-04T03:30:57.270Z,8.625
2023-02-04T03:31:30.182Z,8.625
2023-02-04T03:32:28.926Z,8.625
2023-02-04T03:33:29.405Z,8.625
2023-02-04T03:34:29.620Z,8.625
2023-02-04T03:35:29.249Z,8.625
2023-02-04T03:37:29.460Z,8.625
2023-02-04T03:38:31.022Z,8.625
2023-02-04T03:39:28.794Z,8.625
2023-02-04T03:40:29.406Z,8.625
2023-02-04T03:41:29.012Z,8.625
2023-02-04T03:43:28.871Z,8.625
2023-02-04T03:44:29.297Z,8.625
2023-02-04T03:45:37.467Z,8.625
2023-02-04T03:46:29.720Z,8.625
2023-02-04T03:47:29.697Z,8.625
2023-02-04T03:48:29.792Z,8.625
2023-02-04T03:49:29.095Z,8.625
2023-02-04T03:50:28.908Z,8.625
2023-02-04T03:51:29.238Z,8.625
2023-02-04T03:52:28.719Z,8.625
2023-02-04T03:53:29.011Z,8.625
2023-02-04T03:54:28.314Z,8.625
2023-02-04T03:55:28.456Z,8.625
2023-02-04T03:56:28.803Z,8.625
2023-02-04T03:57:29.165Z,8.625
2023-02-04T03:58:28.436Z,8.625
2023-02-04T03:59:28.194Z,8.625
2023-02-04T04:00:29.798Z,8.625
2023-02-04T04:01:28.500Z,8.625
2023-02-04T04:02:29.247Z,8.625
2023-02-04T04:03:28.497Z,8.625
2023-02-04T04:04:28.836Z,8.625
2023-02-04T04:05:29.157Z,8.625
2023-02-04T04:06:28.464Z,8.625
2023-02-04T04:07:28.933Z,8.625
2023-02-04T04:08:29.252Z,8.625
2023-02-04T04:09:28.343Z,8.625
2023-02-04T04:10:29.389Z,8.572
2023-02-04T04:11:29.131Z,8.572
2023-02-04T04:12:28.254Z,8.583
2023-02-04T04:13:28.694Z,8.572
2023-02-04T04:14:29.120Z,8.604
2023-02-04T04:15:29.901Z,8.625
2023-02-04T04:16:29.577Z,8.572
2023-02-04T04:17:28.744Z,8.593
2023-02-04T04:18:29.192Z,8.583
2023-02-04T04:19:28.461Z,8.614
2023-02-04T04:20:29.305Z,8.625
2023-02-04T04:21:28.723Z,8.625
2023-02-04T04:22:29.182Z,8.593
2023-02-04T04:23:28.628Z,8.572
2023-02-04T04:24:29.206Z,8.562
2023-02-04T04:25:28.929Z,8.562
2023-02-04T04:26:29.211Z,8.562
2023-02-04T04:27:28.471Z,8.562
2023-02-04T04:28:28.986Z,8.583
2023-02-04T04:29:28.537Z,8.562
2023-02-04T04:30:30.477Z,8.572
2023-02-04T04:31:30.372Z,8.593
2023-02-04T04:32:29.480Z,8.562
2023-02-04T04:33:29.123Z,8.562
2023-02-04T04:34:29.366Z,8.572
2023-02-04T04:35:30.128Z,8.562
2023-02-04T04:36:29.310Z,8.572
2023-02-04T04:37:29.400Z,8.583
2023-02-04T04:38:29.676Z,8.562
2023-02-04T04:39:29.995Z,8.572
2023-02-04T04:40:30.031Z,8.562
2023-02-04T04:41:29.482Z,8.562
2023-02-04T04:42:29.756Z,8.562
2023-02-04T04:43:29.992Z,8.562
2023-02-04T04:44:29.628Z,8.562
2023-02-04T04:45:30.008Z,8.562
2023-02-04T04:46:28.728Z,8.562
2023-02-04T04:47:30.045Z,8.562
2023-02-04T04:48:28.958Z,8.562
2023-02-04T04:49:30.256Z,8.562
2023-02-04T04:50:29.741Z,8.562
2023-02-04T04:51:30.591Z,8.562
2023-02-04T04:52:30.098Z,8.562
2023-02-04T04:53:28.799Z,8.562
2023-02-04T04:54:29.675Z,8.562
2023-02-04T04:55:29.506Z,8.562
2023-02-04T04:56:29.395Z,8.562
2023-02-04T04:57:29.263Z,8.562
2023-02-04T04:58:29.510Z,8.562
2023-02-04T04:59:29.886Z,8.562
2023-02-04T05:00:32.279Z,8.562
2023-02-04T05:01:29.750Z,8.562
2023-02-04T05:02:29.919Z,8.562
2023-02-04T05:03:29.206Z,8.562
2023-02-04T05:04:29.785Z,8.562
2023-02-04T05:05:29.949Z,8.562
2023-02-04T05:06:29.663Z,8.562
2023-02-04T05:07:29.219Z,8.562
2023-02-04T05:08:29.396Z,8.562
2023-02-04T05:09:29.682Z,8.562
2023-02-04T05:10:30.587Z,8.562
2023-02-04T05:11:29.651Z,8.562
2023-02-04T05:12:29.117Z,8.562
2023-02-04T05:13:28.422Z,8.562
2023-02-04T05:14:28.848Z,8.562
2023-02-04T05:15:29.855Z,8.562
2023-02-04T05:16:29.745Z,8.562
2023-02-04T05:17:29.722Z,8.562
2023-02-04T05:18:29.466Z,8.562
2023-02-04T05:19:29.053Z,8.562
2023-02-04T05:20:29.073Z,8.562
2023-02-04T05:21:28.548Z,8.562
2023-02-04T05:22:29.171Z,8.562
2023-02-04T05:23:29.495Z,8.562
2023-02-04T05:24:29.090Z,8.562
2023-02-04T05:25:29.580Z,8.562
2023-02-04T05:26:41.045Z,8.562
2023-02-04T05:27:29.004Z,8.562
2023-02-04T05:28:28.986Z,8.562
2023-02-04T05:29:29.135Z,8.562
2023-02-04T05:30:30.118Z,8.562
2023-02-04T05:31:29.455Z,8.562
2023-02-04T05:32:29.728Z,8.562
2023-02-04T05:33:29.320Z,8.562
2023-02-04T05:34:28.924Z,8.562
2023-02-04T05:35:29.957Z,8.562
2023-02-04T05:36:29.788Z,8.562
2023-02-04T05:37:29.300Z,8.551
2023-02-04T05:38:29.007Z,8.562
2023-02-04T05:39:28.429Z,8.562
2023-02-04T05:40:28.866Z,8.562
2023-02-04T05:41:29.396Z,8.562
2023-02-04T05:42:29.240Z,8.562
2023-02-04T05:43:28.841Z,8.562
2023-02-04T05:44:29.522Z,8.562
2023-02-04T05:45:29.690Z,8.562
2023-02-04T05:46:29.357Z,8.562
2023-02-04T05:47:28.997Z,8.562
2023-02-04T05:48:28.531Z,8.562
2023-02-04T05:49:28.553Z,8.562
2023-02-04T05:50:30.101Z,8.562
2023-02-04T05:51:28.905Z,8.562
2023-02-04T05:52:29.549Z,8.562
2023-02-04T05:53:28.984Z,8.562
2023-02-04T05:54:29.108Z,8.551
2023-02-04T05:55:29.267Z,8.531
2023-02-04T05:56:29.452Z,8.520
2023-02-04T05:57:29.466Z,8.562
2023-02-04T05:58:29.337Z,8.562
2023-02-04T05:59:29.189Z,8.562
2023-02-04T06:00:30.849Z,8.562
2023-02-04T06:01:29.815Z,8.562
2023-02-04T06:02:29.949Z,8.551
2023-02-04T06:03:29.863Z,8.562
2023-02-04T06:04:29.815Z,8.562
2023-02-04T06:05:30.014Z,8.541
2023-02-04T06:06:28.412Z,8.531
2023-02-04T06:07:29.661Z,8.531
2023-02-04T06:08:29.662Z,8.5
2023-02-04T06:09:29.391Z,8.5
2023-02-04T06:10:29.874Z,8.510
2023-02-04T06:11:29.086Z,8.520
2023-02-04T06:12:29.477Z,8.5
2023-02-04T06:13:29.164Z,8.520
2023-02-04T06:14:29.600Z,8.5
2023-02-04T06:16:02.920Z,8.5
2023-02-04T06:16:28.970Z,8.5
2023-02-04T06:17:29.231Z,8.5
2023-02-04T06:18:28.892Z,8.5
2023-02-04T06:19:29.879Z,8.5
2023-02-04T06:20:30.290Z,8.5
2023-02-04T06:21:29.127Z,8.5
2023-02-04T06:22:28.750Z,8.5
2023-02-04T06:23:29.864Z,8.5
2023-02-04T06:24:29.927Z,8.5
2023-02-04T06:25:30.518Z,8.5
2023-02-04T06:26:29.778Z,8.5
2023-02-04T06:27:30.128Z,8.5
2023-02-04T06:28:29.211Z,8.5
2023-02-04T06:29:29.125Z,8.5
2023-02-04T06:30:29.546Z,8.5
2023-02-04T06:31:30.021Z,8.5
2023-02-04T06:32:28.997Z,8.5
2023-02-04T06:33:29.207Z,8.5
2023-02-04T06:34:29.465Z,8.5
2023-02-04T06:35:29.769Z,8.5
2023-02-04T06:36:30.070Z,8.5
2023-02-04T06:37:29.019Z,8.5
2023-02-04T06:38:29.049Z,8.5
2023-02-04T06:39:28.994Z,8.5
2023-02-04T06:40:30.141Z,8.5
2023-02-04T06:41:29.306Z,8.5
2023-02-04T06:42:29.155Z,8.491
2023-02-04T06:43:29.451Z,8.487
2023-02-04T06:44:29.359Z,8.491
2023-02-04T06:45:29.385Z,8.5
2023-02-04T06:46:29.330Z,8.472
2023-02-04T06:47:29.364Z,8.449
2023-02-04T06:48:31.049Z,8.446
2023-02-04T06:49:28.820Z,8.449
2023-02-04T06:50:30.541Z,8.437
2023-02-04T06:51:29.495Z,8.437
2023-02-04T06:52:29.736Z,8.437
2023-02-04T06:53:30.254Z,8.437
2023-02-04T06:54:29.544Z,8.437
2023-02-04T06:55:29.830Z,8.437
2023-02-04T06:56:29.813Z,8.437
2023-02-04T06:57:29.752Z,8.437
2023-02-04T06:58:30.029Z,8.437
2023-02-04T06:59:29.503Z,8.437
2023-02-04T07:00:36.068Z,8.437
2023-02-04T07:01:29.325Z,8.437
2023-02-04T07:02:29.638Z,8.437
2023-02-04T07:03:29.521Z,8.437
2023-02-04T07:04:29.591Z,8.437
2023-02-04T07:05:29.909Z,8.437
2023-02-04T07:06:29.772Z,8.437
2023-02-04T07:07:30.230Z,8.437
2023-02-04T07:08:29.259Z,8.437
2023-02-04T07:09:29.157Z,8.437
2023-02-04T07:10:29.756Z,8.437
2023-02-04T07:11:29.999Z,8.437
2023-02-04T07:12:42.974Z,8.437
2023-02-04T07:13:29.867Z,8.437
2023-02-04T07:14:29.916Z,8.437
2023-02-04T07:15:30.192Z,8.437
2023-02-04T07:16:29.398Z,8.437
2023-02-04T07:17:29.297Z,8.437
2023-02-04T07:18:29.140Z,8.437
2023-02-04T07:19:32.097Z,8.437
2023-02-04T07:20:30.269Z,8.437
2023-02-04T07:21:28.969Z,8.437
2023-02-04T07:22:30.349Z,8.437
2023-02-04T07:23:29.144Z,8.437
2023-02-04T07:24:29.227Z,8.437
2023-02-04T07:25:29.214Z,8.437
2023-02-04T07:26:28.825Z,8.437
2023-02-04T07:27:29.788Z,8.437
2023-02-04T07:28:29.788Z,8.437
2023-02-04T07:29:36.594Z,8.437
2023-02-04T07:30:30.561Z,8.437
2023-02-04T07:31:30.121Z,8.437
2023-02-04T07:32:29.270Z,8.437
2023-02-04T07:33:29.266Z,8.437
2023-02-04T07:34:29.280Z,8.437
2023-02-04T07:35:29.195Z,8.437
2023-02-04T07:36:29.742Z,8.437
2023-02-04T07:37:30.825Z,8.437
2023-02-04T07:38:29.404Z,8.437
2023-02-04T07:39:30.588Z,8.437
2023-02-04T07:40:30.768Z,8.437
2023-02-04T07:41:29.528Z,8.437
2023-02-04T07:42:30.026Z,8.437
2023-02-04T07:43:29.376Z,8.437
2023-02-04T07:44:29.827Z,8.437
2023-02-04T07:45:31.211Z,8.437
2023-02-04T07:47:29.909Z,8.437
2023-02-04T07:48:30.568Z,8.437
2023-02-04T07:49:29.975Z,8.437
2023-02-04T07:50:29.430Z,8.437
2023-02-04T07:51:29.747Z,8.437
2023-02-04T07:52:29.665Z,8.437
2023-02-04T07:53:29.577Z,8.437
2023-02-04T07:54:29.637Z,8.437
2023-02-04T07:55:29.750Z,8.437
2023-02-04T07:56:29.807Z,8.437
2023-02-04T07:57:31.653Z,8.437
2023-02-04T07:58:58.012Z,8.437
2023-02-04T07:59:29.068Z,8.437
2023-02-04T08:00:31.127Z,8.437
2023-02-04T08:01:30.105Z,8.437
2023-02-04T08:02:30.102Z,8.437
2023-02-04T08:03:29.442Z,8.437
2023-02-04T08:04:30.036Z,8.437
2023-02-04T08:05:30.283Z,8.437
2023-02-04T08:06:29.555Z,8.437
2023-02-04T08:07:29.932Z,8.437
2023-02-04T08:08:29.895Z,8.437
2023-02-04T08:09:30.270Z,8.437
2023-02-04T08:10:30.715Z,8.437
2023-02-04T08:11:29.686Z,8.437
2023-02-04T08:12:29.520Z,8.437
2023-02-04T08:13:29.108Z,8.437
2023-02-04T08:14:29.439Z,8.437
2023-02-04T08:15:29.644Z,8.437
2023-02-04T08:16:29.617Z,8.437
2023-02-04T08:17:29.651Z,8.437
2023-02-04T08:18:29.637Z,8.437
2023-02-04T08:19:29.400Z,8.437
2023-02-04T08:20:30.025Z,8.437
2023-02-04T08:21:30.813Z,8.437
2023-02-04T08:22:29.986Z,8.437
2023-02-04T08:23:29.395Z,8.437
2023-02-04T08:24:29.560Z,8.437
2023-02-04T08:25:30.745Z,8.437
2023-02-04T08:26:30.179Z,8.437
2023-02-04T08:27:29.094Z,8.437
2023-02-04T08:28:29.838Z,8.437
2023-02-04T08:29:30.560Z,8.437
2023-02-04T08:30:31.035Z,8.437
2023-02-04T08:31:30.092Z,8.437
2023-02-04T08:32:29.526Z,8.437
2023-02-04T08:33:29.685Z,8.437
2023-02-04T08:34:29.561Z,8.437
2023-02-04T08:35:30.468Z,7
2023-02-04T08:36:29.832Z,8.437
2023-02-04T08:37:30.159Z,8.437
2023-02-04T08:38:29.351Z,8.437
2023-02-04T08:39:30.023Z,8.437
2023-02-04T08:40:32.831Z,8.437
2023-02-04T08:41:30.369Z,8.437
2023-02-04T08:42:30.464Z,8.437
2023-02-04T08:43:30.984Z,8.447
2023-02-04T08:44:30.578Z,8.437
2023-02-04T08:45:32.521Z,8.437
2023-02-04T08:46:32.419Z,8.437
2023-02-04T08:47:31.105Z,8.437
2023-02-04T08:48:31.973Z,8.437
2023-02-04T08:49:30.877Z,8.437
2023-02-04T08:50:32.877Z,8.437
2023-02-04T08:51:31.569Z,8.437
2023-02-04T08:52:31.887Z,8.437
2023-02-04T08:53:31.913Z,8.437
2023-02-04T08:54:32.488Z,8.437
2023-02-04T08:55:32.362Z,8.437
2023-02-04T08:56:32.660Z,8.447
2023-02-04T08:57:30.606Z,8.437
2023-02-04T08:58:30.648Z,8.447
2023-02-04T08:59:30.576Z,8.437
2023-02-04T09:00:32.057Z,8.458
2023-02-04T09:01:30.622Z,8.447
2023-02-04T09:02:30.716Z,8.437
2023-02-04T09:03:30.388Z,8.437
2023-02-04T09:04:30.497Z,8.437
2023-02-04T09:05:30.785Z,8.458
2023-02-04T09:06:31.490Z,8.437
2023-02-04T09:07:30.257Z,8.437
2023-02-04T09:08:30.349Z,8.437
2023-02-04T09:09:34.253Z,8.437
2023-02-04T09:10:30.619Z,8.447
2023-02-04T09:11:30.865Z,8.447
2023-02-04T09:12:30.913Z,8.447
2023-02-04T09:13:31.147Z,8.489
2023-02-04T09:14:30.412Z,8.489
2023-02-04T09:15:31.667Z,8.489
2023-02-04T09:16:31.363Z,8.5
2023-02-04T09:17:30.890Z,8.5
2023-02-04T09:18:31.153Z,8.5
2023-02-04T09:19:30.882Z,8.489
2023-02-04T09:20:32.917Z,8.489
2023-02-04T09:21:30.613Z,8.468
2023-02-04T09:22:30.502Z,8.468
2023-02-04T09:23:31.091Z,8.5
2023-02-04T09:24:30.707Z,8.5
2023-02-04T09:25:36.069Z,8.479
2023-02-04T09:26:30.375Z,8.5
2023-02-04T09:27:35.476Z,8.5
2023-02-04T09:28:30.387Z,8.5
2023-02-04T09:29:30.336Z,8.5
2023-02-04T09:30:30.818Z,8.5
2023-02-04T09:31:31.684Z,8.5
2023-02-04T09:32:31.098Z,8.5
2023-02-04T09:33:30.364Z,8.5
2023-02-04T09:34:30.248Z,8.5
2023-02-04T09:35:30.957Z,8.5
2023-02-04T09:36:31.100Z,8.5
2023-02-04T09:37:29.934Z,8.5
2023-02-04T09:38:31.023Z,8.5
2023-02-04T09:39:30.264Z,8.5
2023-02-04T09:40:31.323Z,8.5
2023-02-04T09:41:30.487Z,8.5
2023-02-04T09:42:30.911Z,8.5
2023-02-04T09:43:31.842Z,8.5
2023-02-04T09:44:31.859Z,8.5
2023-02-04T09:45:32.338Z,8.5
2023-02-04T09:46:30.818Z,8.5
2023-02-04T09:47:31.182Z,8.5
2023-02-04T09:48:30.213Z,8.5
2023-02-04T09:49:35.198Z,8.5
2023-02-04T09:50:30.379Z,8.5
2023-02-04T09:51:31.005Z,8.5
2023-02-04T09:52:30.124Z,8.5
2023-02-04T09:53:31.105Z,8.5
2023-02-04T09:54:30.143Z,8.5
2023-02-04T09:55:30.625Z,8.5
2023-02-04T09:56:30.797Z,8.5
2023-02-04T09:57:31.874Z,8.5
2023-02-04T09:58:31.098Z,8.5
2023-02-04T09:59:35.747Z,8.5
2023-02-04T10:00:32.535Z,8.5
2023-02-04T10:01:36.439Z,8.5
2023-02-04T10:02:31.462Z,8.5
2023-02-04T10:03:50.477Z,8.5
2023-02-04T10:04:31.497Z,8.5
2023-02-04T10:05:34.712Z,8.5
2023-02-04T10:06:31.576Z,8.5
2023-02-04T10:07:31.598Z,8.5
2023-02-04T10:08:32.117Z,8.5
2023-02-04T10:09:30.948Z,8.5
2023-02-04T10:10:31.785Z,8.510
2023-02-04T10:11:30.978Z,8.5
2023-02-04T10:12:30.565Z,8.5
2023-02-04T10:13:30.688Z,8.5
2023-02-04T10:14:30.991Z,8.520
2023-02-04T10:15:31.637Z,8.510
2023-02-04T10:16:30.912Z,8.5
2023-02-04T10:17:31.322Z,8.5
2023-02-04T10:18:31.941Z,8.510
2023-02-04T10:19:31.742Z,8.5
2023-02-04T10:20:31.878Z,8.520
2023-02-04T10:21:31.570Z,8.520
2023-02-04T10:22:31.537Z,8.562
2023-02-04T10:23:31.935Z,8.562
2023-02-04T10:24:32.196Z,8.541
2023-02-04T10:25:30.953Z,8.562
2023-02-04T10:26:31.455Z,8.562
2023-02-04T10:27:30.821Z,8.562
2023-02-04T10:28:31.463Z,8.562
2023-02-04T10:29:30.517Z,8.562
2023-02-04T10:30:31.763Z,8.562
2023-02-04T10:31:31.526Z,8.562
2023-02-04T10:32:31.106Z,8.562
2023-02-04T10:33:30.704Z,8.562
2023-02-04T10:34:30.912Z,8.562
2023-02-04T10:35:31.293Z,8.562
2023-02-04T10:36:30.996Z,8.562
2023-02-04T10:37:30.355Z,8.562
2023-02-04T10:38:30.871Z,8.562
2023-02-04T10:39:31.608Z,8.562
2023-02-04T10:40:31.921Z,8.562
2023-02-04T10:41:30.864Z,8.562
2023-02-04T10:42:30.999Z,8.562
2023-02-04T10:43:30.486Z,8.562
2023-02-04T10:44:30.048Z,8.562
2023-02-04T10:45:29.956Z,8.562
2023-02-04T10:46:31.222Z,8.562
2023-02-04T10:47:29.893Z,8.562
2023-02-04T10:48:30.653Z,8.562
2023-02-04T10:49:29.858Z,8.562
2023-02-04T10:50:30.861Z,8.562
2023-02-04T10:51:29.020Z,8.562
2023-02-04T10:52:29.803Z,8.562
2023-02-04T10:53:30.846Z,8.562
2023-02-04T10:54:30.834Z,8.562
2023-02-04T10:55:31.551Z,8.562
2023-02-04T10:56:31.072Z,8.562
2023-02-04T10:57:33.393Z,8.562
2023-02-04T10:58:30.735Z,8.583
2023-02-04T10:59:31.196Z,8.572
2023-02-04T11:00:32.296Z,8.583
2023-02-04T11:01:31.043Z,8.562
2023-02-04T11:02:30.413Z,8.593
2023-02-04T11:03:30.698Z,8.604
2023-02-04T11:04:31.100Z,8.604
2023-02-04T11:05:31.002Z,8.604
2023-02-04T11:06:30.461Z,8.625
2023-02-04T11:07:31.131Z,8.625
2023-02-04T11:08:30.007Z,8.625
2023-02-04T11:09:30.396Z,8.625
2023-02-04T11:10:31.674Z,8.625
2023-02-04T11:11:31.700Z,8.625
2023-02-04T11:12:31.146Z,8.625
2023-02-04T11:13:30.479Z,8.625
2023-02-04T11:14:31.142Z,8.625
2023-02-04T11:15:30.804Z,8.614
2023-02-04T11:16:31.275Z,8.625
2023-02-04T11:17:30.519Z,8.625
2023-02-04T11:18:30.477Z,8.625
2023-02-04T11:19:30.217Z,8.625
2023-02-04T11:20:31.239Z,8.625
2023-02-04T11:21:30.949Z,8.625
2023-02-04T11:22:30.793Z,8.625
2023-02-04T11:23:31.208Z,8.625
2023-02-04T11:24:30.909Z,8.625
2023-02-04T11:25:31.793Z,8.625
2023-02-04T11:26:31.797Z,8.625
2023-02-04T11:27:31.531Z,8.625
2023-02-04T11:28:30.997Z,8.625
2023-02-04T11:29:30.882Z,8.625
2023-02-04T11:30:31.533Z,8.625
2023-02-04T11:31:31.206Z,8.625
2023-02-04T11:32:33.467Z,8.625
2023-02-04T11:33:30.403Z,8.625
2023-02-04T11:34:30.825Z,8.625
2023-02-04T11:35:31.938Z,6.800
2023-02-04T11:36:30.085Z,8.625
2023-02-04T11:37:30.262Z,8.625
2023-02-04T11:38:30.207Z,8.625
2023-02-04T11:39:30.528Z,8.625
2023-02-04T11:40:30.873Z,8.625
2023-02-04T11:41:31.452Z,8.625
2023-02-04T11:42:30.420Z,8.625
2023-02-04T11:43:33.058Z,8.625
2023-02-04T11:44:30.506Z,8.625
2023-02-04T11:45:30.861Z,8.625
2023-02-04T11:46:29.590Z,8.625
2023-02-04T11:47:30.443Z,8.625
2023-02-04T11:48:30.027Z,8.625
2023-02-04T11:49:29.696Z,8.625
2023-02-04T11:50:30.896Z,8.625
2023-02-04T11:51:31.034Z,8.625
2023-02-04T11:52:30.213Z,8.625
2023-02-04T11:53:30.597Z,8.625
2023-02-04T11:54:30.809Z,8.625
2023-02-04T11:55:31.513Z,8.625
2023-02-04T11:56:31.249Z,8.625
2023-02-04T11:57:30.936Z,8.625
2023-02-04T11:58:31.227Z,8.625
2023-02-04T11:59:30.929Z,8.625
2023-02-04T12:00:37.920Z,8.645
2023-02-04T12:01:31.015Z,8.635
2023-02-04T12:02:30.803Z,8.625
2023-02-04T12:03:32.563Z,8.625
2023-02-04T12:04:31.006Z,8.625
2023-02-04T12:05:31.282Z,8.625
2023-02-04T12:06:31.085Z,8.666
2023-02-04T12:07:31.127Z,8.656
2023-02-04T12:08:30.743Z,8.645
2023-02-04T12:09:31.334Z,8.666
2023-02-04T12:10:31.122Z,8.666
2023-02-04T12:11:30.599Z,8.687
2023-02-04T12:12:31.280Z,8.666
2023-02-04T12:13:31.227Z,8.656
2023-02-04T12:14:45.464Z,8.635
2023-02-04T12:15:31.797Z,8.676
2023-02-04T12:16:31.627Z,8.666
2023-02-04T12:17:31.360Z,8.666
2023-02-04T12:18:31.467Z,8.687
2023-02-04T12:19:30.898Z,8.687
2023-02-04T12:20:36.628Z,8.687
2023-02-04T12:21:30.925Z,8.687
2023-02-04T12:22:37.428Z,8.687
2023-02-04T12:23:31.727Z,8.687
2023-02-04T12:24:50.121Z,8.687
2023-02-04T12:25:31.189Z,8.687
2023-02-04T12:26:38.727Z,8.687
2023-02-04T12:27:30.951Z,8.687
2023-02-04T12:28:31.575Z,8.687
2023-02-04T12:29:31.030Z,8.687
2023-02-04T12:30:32.560Z,8.687
2023-02-04T12:31:31.662Z,8.687
2023-02-04T12:32:31.597Z,8.687
2023-02-04T12:33:31.709Z,8.687
2023-02-04T12:34:31.013Z,8.687
2023-02-04T12:35:31.310Z,8.687
2023-02-04T12:36:32.051Z,8.687
2023-02-04T12:37:31.243Z,8.687
2023-02-04T12:38:32.411Z,8.687
2023-02-04T12:39:31.327Z,8.687
2023-02-04T12:40:53.796Z,8.687
2023-02-04T12:41:31.882Z,8.687
2023-02-04T12:42:32.134Z,8.687
2023-02-04T12:43:31.257Z,8.687
2023-02-04T12:44:31.619Z,8.687
2023-02-04T12:45:32.918Z,8.687
2023-02-04T12:46:45.481Z,8.687
2023-02-04T12:47:30.985Z,8.687
2023-02-04T12:48:30.877Z,8.687
2023-02-04T12:50:48.472Z,8.687
2023-02-04T12:51:32.331Z,8.687
2023-02-04T12:52:31.852Z,8.687
2023-02-04T12:53:32.202Z,8.687
2023-02-04T12:54:32.436Z,8.687
2023-02-04T12:55:32.088Z,8.687
2023-02-04T12:56:31.114Z,8.687
2023-02-04T12:57:30.755Z,8.687
2023-02-04T12:58:30.876Z,8.687
2023-02-04T12:59:30.761Z,8.687
2023-02-04T13:00:32.029Z,8.687
2023-02-04T13:01:30.430Z,8.687
2023-02-04T13:02:31.464Z,8.687
2023-02-04T13:03:30.979Z,8.687
2023-02-04T13:04:31.590Z,8.687
2023-02-04T13:05:31.785Z,8.687
2023-02-04T13:06:32.060Z,8.696
2023-02-04T13:07:31.576Z,8.687